Terminal Aerodrome Forecast
Issued by NWS

Home | Current Version | Previous Version | Text Only | Print | Product List | Glossary On
Versions: 1 2 3 4 5 6 7 8 9 10 11 12 13 14 15 16 17 18 19 20 21 22 23
000
FTUS43 KMPX 300520
TAFRNH
TAF
KRNH 300520Z 3006/0106 VRB04KT 1/2SM FG SCT002
      TEMPO 3006/3008 3SM BR
     FM300800 00000KT 1/4SM FG VV001
     FM301300 02006KT P6SM OVC015
     FM301400 02006KT P6SM FEW040 BKN250=

USA.gov is the U.S. government's official web portal to all federal, state and local government web resources and services.